createdAt,value
2022-11-14T00:02:35.229Z,8.10
2022-11-14T00:05:21.140Z,8.38
2022-11-14T00:08:06.489Z,8.57
2022-11-14T00:10:51.992Z,8.73
2022-11-14T00:13:37.034Z,8.20
2022-11-14T00:16:21.947Z,8.88
2022-11-14T00:19:06.839Z,8.32
2022-11-14T00:21:53.323Z,8.70
2022-11-14T00:24:38.391Z,8.68
2022-11-14T00:27:23.320Z,7.50
2022-11-14T00:30:08.913Z,8.68
2022-11-14T00:32:54.085Z,8.02
2022-11-14T00:35:38.878Z,8.60
2022-11-14T00:38:24.056Z,8.32
2022-11-14T00:41:09.199Z,8.77
2022-11-14T00:43:54.240Z,8.20
2022-11-14T00:46:39.118Z,8.00
2022-11-14T00:49:24.198Z,8.55
2022-11-14T00:52:09.332Z,8.30
2022-11-14T00:54:54.620Z,8.05
2022-11-14T00:57:39.740Z,8.43
2022-11-14T01:00:24.705Z,7.97
2022-11-14T01:03:09.566Z,8.45
2022-11-14T01:05:54.433Z,8.65
2022-11-14T01:08:39.420Z,7.95
2022-11-14T01:11:24.494Z,9.23
2022-11-14T01:14:09.812Z,8.13
2022-11-14T01:16:54.612Z,8.40
2022-11-14T01:19:39.559Z,8.43
2022-11-14T01:22:24.575Z,8.50
2022-11-14T01:25:09.553Z,8.95
2022-11-14T01:27:54.567Z,8.40
2022-11-14T01:30:40.129Z,9.20
2022-11-14T01:33:25.301Z,8.35
2022-11-14T01:36:10.995Z,8.82
2022-11-14T01:38:55.959Z,9.05
2022-11-14T01:41:40.845Z,9.13
2022-11-14T01:44:48.230Z,8.82
2022-11-14T01:47:33.976Z,9.48
2022-11-14T01:50:19.152Z,10.05
2022-11-14T01:53:04.251Z,9.38
2022-11-14T01:55:50.091Z,9.02
2022-11-14T01:58:38.571Z,9.82
2022-11-14T02:01:25.795Z,9.07
2022-11-14T02:04:15.260Z,10.05
2022-11-14T02:07:03.369Z,9.38
2022-11-14T02:09:49.418Z,10.45
2022-11-14T02:12:34.688Z,10.15
2022-11-14T02:15:19.860Z,10.25
2022-11-14T02:18:04.968Z,10.00
2022-11-14T02:20:49.846Z,10.68
2022-11-14T02:23:34.739Z,9.68
2022-11-14T02:26:21.160Z,10.35
2022-11-14T02:29:07.788Z,10.95
2022-11-14T02:31:52.913Z,10.55
2022-11-14T02:34:38.554Z,11.40
2022-11-14T02:37:23.687Z,10.85
2022-11-14T02:40:09.364Z,11.07
2022-11-14T02:42:54.600Z,11.45
2022-11-14T02:45:39.529Z,10.77
2022-11-14T02:48:24.383Z,10.43
2022-11-14T02:51:09.257Z,11.00
2022-11-14T02:53:54.372Z,11.57
2022-11-14T02:56:39.208Z,11.38
2022-11-14T02:59:24.029Z,11.32
2022-11-14T03:02:08.945Z,10.85
2022-11-14T03:04:54.000Z,11.05
2022-11-14T03:07:39.204Z,11.55
2022-11-14T03:10:24.540Z,10.70
2022-11-14T03:13:09.521Z,11.70
2022-11-14T03:15:54.419Z,10.88
2022-11-14T03:18:39.303Z,12.02
2022-11-14T03:21:24.232Z,10.68
2022-11-14T03:24:09.120Z,12.00
2022-11-14T03:26:54.008Z,12.27
2022-11-14T03:29:38.795Z,10.93
2022-11-14T03:32:23.734Z,12.02
2022-11-14T03:35:09.199Z,11.70
2022-11-14T03:37:56.645Z,11.88
2022-11-14T03:40:42.670Z,12.20
2022-11-14T03:43:31.399Z,11.23
2022-11-14T03:46:16.704Z,12.98
2022-11-14T03:49:02.307Z,12.05
2022-11-14T03:51:48.085Z,11.65
2022-11-14T03:54:33.368Z,12.85
2022-11-14T03:57:18.139Z,13.20
2022-11-14T04:00:03.911Z,12.65
2022-11-14T04:02:48.828Z,13.07
2022-11-14T04:05:33.800Z,12.95
2022-11-14T04:08:18.669Z,13.63
2022-11-14T04:11:03.492Z,13.93
2022-11-14T04:13:48.382Z,13.90
2022-11-14T04:16:33.397Z,14.20
2022-11-14T04:19:18.298Z,14.43
2022-11-14T04:22:03.588Z,14.32
2022-11-14T04:24:48.817Z,15.23
2022-11-14T04:27:34.523Z,14.63
2022-11-14T04:30:19.333Z,14.73
2022-11-14T04:33:04.406Z,15.30
2022-11-14T04:35:49.186Z,14.93
2022-11-14T04:38:34.024Z,14.75
2022-11-14T04:41:18.927Z,14.57
2022-11-14T04:44:04.016Z,14.70
2022-11-14T04:46:48.784Z,15.25
2022-11-14T04:49:33.755Z,15.13
2022-11-14T04:52:18.740Z,14.73
2022-11-14T04:55:03.980Z,13.52
2022-11-14T04:57:54.900Z,14.68
2022-11-14T05:00:40.089Z,15.32
2022-11-14T05:03:25.792Z,14.50
2022-11-14T05:06:11.117Z,15.13
2022-11-14T05:08:56.087Z,14.73
2022-11-14T05:11:41.197Z,14.18
2022-11-14T05:14:26.142Z,13.82
2022-11-14T05:17:11.107Z,14.80
2022-11-14T05:19:56.181Z,14.85
2022-11-14T05:22:41.051Z,14.63
2022-11-14T05:25:26.337Z,14.07
2022-11-14T05:28:11.454Z,13.77
2022-11-14T05:31:02.789Z,13.75
2022-11-14T05:33:48.030Z,14.18
2022-11-14T05:36:33.109Z,13.85
2022-11-14T05:39:18.159Z,13.93
2022-11-14T05:42:03.273Z,12.98
2022-11-14T05:44:48.460Z,14.30
2022-11-14T05:47:33.468Z,12.73
2022-11-14T05:50:18.303Z,14.00
2022-11-14T05:53:03.042Z,14.10
2022-11-14T05:55:47.986Z,12.85
2022-11-14T05:58:34.844Z,14.82
2022-11-14T06:01:20.333Z,14.15
2022-11-14T06:04:06.453Z,13.70
2022-11-14T06:06:51.531Z,14.10
2022-11-14T06:09:36.271Z,13.90
2022-11-14T06:12:21.207Z,14.55
2022-11-14T06:15:06.621Z,14.43
2022-11-14T06:17:54.936Z,14.40
2022-11-14T06:20:40.052Z,14.55
2022-11-14T06:23:25.207Z,14.10
2022-11-14T06:26:24.444Z,15.75
2022-11-14T06:29:10.143Z,14.20
2022-11-14T06:31:55.253Z,14.80
2022-11-14T06:34:40.166Z,14.18
2022-11-14T06:37:25.168Z,14.70
2022-11-14T06:40:10.777Z,14.73
2022-11-14T06:42:56.591Z,14.85
2022-11-14T06:45:41.885Z,14.98
2022-11-14T06:48:26.986Z,14.50
2022-11-14T06:51:13.211Z,14.82
2022-11-14T06:53:58.669Z,15.05
2022-11-14T06:56:43.735Z,15.27
2022-11-14T06:59:28.652Z,15.45
2022-11-14T07:02:20.489Z,14.88
2022-11-14T07:05:06.697Z,14.70
2022-11-14T07:07:51.898Z,15.43
2022-11-14T07:10:36.936Z,15.85
2022-11-14T07:13:21.872Z,15.80
2022-11-14T07:16:07.239Z,15.60
2022-11-14T07:18:52.379Z,16.02
2022-11-14T07:21:37.191Z,16.00
2022-11-14T07:24:22.030Z,15.35
2022-11-14T07:27:09.141Z,15.73
2022-11-14T07:29:54.288Z,15.73
2022-11-14T07:32:39.109Z,16.17
2022-11-14T07:35:24.914Z,14.30
2022-11-14T07:38:09.898Z,15.05
2022-11-14T07:41:00.528Z,14.20
2022-11-14T07:43:46.132Z,15.25
2022-11-14T07:46:30.991Z,14.88
2022-11-14T07:49:16.007Z,14.90
2022-11-14T07:52:01.069Z,14.63
2022-11-14T07:54:46.000Z,14.25
2022-11-14T07:57:35.454Z,14.15
2022-11-14T08:00:23.840Z,13.85
2022-11-14T08:03:09.162Z,14.18
2022-11-14T08:06:09.493Z,13.55
2022-11-14T08:08:54.505Z,13.18
2022-11-14T08:11:48.895Z,12.73
2022-11-14T08:14:34.393Z,12.52
2022-11-14T08:17:21.321Z,13.45
2022-11-14T08:20:08.319Z,12.25
2022-11-14T08:22:54.545Z,15.38
2022-11-14T08:25:39.929Z,15.60
2022-11-14T08:28:25.216Z,17.38
2022-11-14T08:31:10.771Z,18.35
2022-11-14T08:33:56.350Z,16.98
2022-11-14T08:36:41.205Z,18.95
2022-11-14T08:39:26.163Z,17.92
2022-11-14T08:42:11.042Z,18.73
2022-11-14T08:44:56.033Z,15.52
2022-11-14T08:47:40.961Z,16.55
2022-11-14T08:50:25.883Z,17.25
2022-11-14T08:53:11.524Z,15.43
2022-11-14T08:55:56.734Z,15.35
2022-11-14T08:58:42.002Z,15.88
2022-11-14T09:01:26.857Z,17.48
2022-11-14T09:04:12.136Z,17.25
2022-11-14T09:06:58.791Z,17.17
2022-11-14T09:09:43.590Z,18.25
2022-11-14T09:12:28.820Z,18.33
2022-11-14T09:15:13.948Z,18.58
2022-11-14T09:17:58.703Z,18.15
2022-11-14T09:20:43.497Z,17.13
2022-11-14T09:23:28.633Z,17.98
2022-11-14T09:26:16.217Z,16.77
2022-11-14T09:29:02.105Z,18.27
2022-11-14T09:31:47.324Z,16.88
2022-11-14T09:34:32.205Z,17.70
2022-11-14T09:37:17.311Z,19.77
2022-11-14T09:40:03.486Z,18.33
2022-11-14T09:43:07.304Z,19.60
2022-11-14T09:45:53.288Z,20.38
2022-11-14T09:48:38.541Z,18.38
2022-11-14T09:51:27.669Z,17.60
2022-11-14T09:54:29.208Z,18.90
2022-11-14T09:57:17.424Z,17.70
2022-11-14T10:00:23.071Z,19.10
2022-11-14T10:03:35.977Z,16.83
2022-11-14T10:06:25.336Z,17.15
2022-11-14T10:09:33.443Z,16.13
2022-11-14T10:12:26.880Z,15.55
2022-11-14T10:15:14.852Z,17.08
2022-11-14T10:18:31.160Z,16.13
2022-11-14T10:21:28.368Z,14.63
2022-11-14T10:24:29.841Z,16.75
2022-11-14T10:27:42.899Z,16.50
2022-11-14T10:30:39.488Z,16.45
2022-11-14T10:33:52.021Z,16.38
2022-11-14T10:36:55.933Z,15.65
2022-11-14T10:39:43.764Z,13.95
2022-11-14T10:42:38.319Z,13.60
2022-11-14T10:45:35.940Z,10.82
2022-11-14T10:48:30.442Z,10.57
2022-11-14T10:51:39.780Z,10.63
2022-11-14T10:54:37.170Z,9.93
2022-11-14T10:57:22.601Z,8.70
2022-11-14T11:00:19.556Z,8.68
2022-11-14T11:03:04.455Z,8.48
2022-11-14T11:05:52.059Z,8.23
2022-11-14T11:09:02.798Z,7.55
2022-11-14T11:11:59.418Z,8.05
2022-11-14T11:14:45.768Z,7.65
2022-11-14T11:17:37.071Z,7.65
2022-11-14T11:20:34.622Z,7.93
2022-11-14T11:23:25.375Z,7.72
2022-11-14T11:26:19.787Z,8.73
2022-11-14T11:29:06.578Z,8.25
2022-11-14T11:31:54.704Z,8.13
2022-11-14T11:34:40.370Z,8.25
2022-11-14T11:40:22.712Z,8.63
2022-11-14T11:46:42.992Z,9.65
2022-11-14T11:49:31.014Z,9.98
2022-11-14T11:52:44.175Z,9.82
2022-11-14T11:55:37.643Z,12.98
2022-11-14T11:58:27.988Z,11.60
2022-11-14T12:01:14.076Z,10.65
2022-11-14T12:04:00.668Z,10.68
2022-11-14T12:06:57.221Z,10.73
2022-11-14T12:10:09.268Z,10.15
2022-11-14T12:13:21.407Z,11.80
2022-11-14T12:16:19.536Z,11.57
2022-11-14T12:19:07.398Z,12.93
2022-11-14T12:22:03.724Z,11.20
2022-11-14T12:25:08.407Z,9.80
2022-11-14T12:28:13.668Z,9.82
2022-11-14T12:31:03.354Z,10.23
2022-11-14T12:33:55.914Z,10.45
2022-11-14T12:36:44.636Z,9.63
2022-11-14T12:39:31.523Z,10.40
2022-11-14T12:42:21.012Z,10.95
2022-11-14T12:45:41.247Z,10.80
2022-11-14T12:48:26.249Z,11.07
2022-11-14T12:51:29.349Z,11.57
2022-11-14T12:54:44.520Z,10.93
2022-11-14T12:58:01.586Z,11.05
2022-11-14T13:00:46.737Z,10.40
2022-11-14T13:03:40.725Z,12.13
2022-11-14T13:06:46.873Z,11.18
2022-11-14T13:09:54.486Z,11.88
2022-11-14T13:13:01.324Z,10.75
2022-11-14T13:16:13.451Z,12.82
2022-11-14T13:19:30.836Z,12.15
2022-11-14T13:22:15.967Z,11.75
2022-11-14T13:25:01.139Z,10.90
2022-11-14T13:28:07.944Z,11.23
2022-11-14T13:31:16.774Z,10.20
2022-11-14T13:34:37.489Z,10.15
2022-11-14T13:37:48.406Z,10.60
2022-11-14T13:40:39.878Z,10.02
2022-11-14T13:43:47.534Z,10.63
2022-11-14T13:46:54.315Z,11.60
2022-11-14T13:49:59.084Z,11.55
2022-11-14T13:52:47.545Z,11.35
2022-11-14T13:55:56.330Z,11.20
2022-11-14T13:59:17.036Z,11.13
2022-11-14T14:02:22.120Z,11.73
2022-11-14T14:05:20.893Z,11.57
2022-11-14T14:08:19.939Z,10.98
2022-11-14T14:11:23.724Z,11.88
2022-11-14T14:14:17.870Z,12.35
2022-11-14T14:17:35.540Z,12.82
2022-11-14T14:20:51.067Z,13.02
2022-11-14T14:23:55.064Z,12.77
2022-11-14T14:30:08.626Z,12.85
2022-11-14T14:33:11.963Z,13.10
2022-11-14T14:35:57.271Z,15.50
2022-11-14T14:38:42.225Z,13.27
2022-11-14T14:41:31.741Z,14.38
2022-11-14T14:44:22.886Z,11.95
2022-11-14T14:47:34.081Z,12.95
2022-11-14T14:50:22.332Z,13.00
2022-11-14T14:53:18.557Z,12.20
2022-11-14T14:56:18.331Z,13.65
2022-11-14T14:59:17.237Z,12.88
2022-11-14T15:02:02.517Z,13.88
2022-11-14T15:04:47.363Z,13.27
2022-11-14T15:07:32.906Z,13.52
2022-11-14T15:10:29.484Z,15.02
2022-11-14T15:13:16.028Z,25.38
2022-11-14T15:16:03.234Z,21.33
2022-11-14T15:18:50.491Z,18.73
2022-11-14T15:21:35.424Z,19.77
2022-11-14T15:24:23.903Z,18.02
2022-11-14T15:27:14.532Z,17.45
2022-11-14T15:30:06.141Z,17.02
2022-11-14T15:32:56.901Z,18.13
2022-11-14T15:35:42.228Z,19.20
2022-11-14T15:38:44.263Z,13.07
2022-11-14T15:41:31.723Z,20.80
2022-11-14T15:44:33.864Z,17.50
2022-11-14T15:47:39.443Z,15.00
2022-11-14T15:50:33.107Z,14.35
2022-11-14T15:53:23.549Z,14.52
2022-11-14T15:56:11.623Z,13.98
2022-11-14T15:58:56.733Z,14.23
2022-11-14T16:01:44.269Z,14.93
2022-11-14T16:04:44.397Z,14.88
2022-11-14T16:07:32.318Z,15.00
2022-11-14T16:10:23.238Z,16.17
2022-11-14T16:13:08.130Z,15.07
2022-11-14T16:15:53.071Z,13.82
2022-11-14T16:18:37.912Z,14.32
2022-11-14T16:21:22.794Z,14.07
2022-11-14T16:24:14.055Z,16.10
2022-11-14T16:26:58.991Z,15.13
2022-11-14T16:29:44.000Z,13.43
2022-11-14T16:32:28.864Z,13.48
2022-11-14T16:35:16.720Z,18.85
2022-11-14T16:38:01.982Z,13.77
2022-11-14T16:40:47.157Z,13.52
2022-11-14T16:43:32.305Z,11.88
2022-11-14T16:46:17.583Z,13.68
2022-11-14T16:49:02.891Z,13.73
2022-11-14T16:51:50.434Z,12.43
2022-11-14T16:54:35.510Z,14.13
2022-11-14T16:57:20.498Z,13.90
2022-11-14T17:00:08.222Z,13.55
2022-11-14T17:02:53.431Z,12.70
2022-11-14T17:05:46.146Z,13.45
2022-11-14T17:08:31.395Z,13.25
2022-11-14T17:11:16.344Z,12.65
2022-11-14T17:14:01.349Z,14.02
2022-11-14T17:16:46.668Z,17.08
2022-11-14T17:19:31.570Z,21.73
2022-11-14T17:22:17.757Z,15.23
2022-11-14T17:25:03.139Z,14.07
2022-11-14T17:27:48.925Z,15.57
2022-11-14T17:30:33.695Z,38.08
2022-11-14T17:33:18.582Z,41.28
2022-11-14T17:36:09.015Z,48.05
2022-11-14T17:38:54.161Z,26.63
2022-11-14T17:41:39.078Z,43.42
2022-11-14T17:44:23.942Z,45.22
2022-11-14T17:47:08.686Z,24.08
2022-11-14T17:49:53.852Z,18.20
2022-11-14T17:52:40.880Z,15.90
2022-11-14T17:55:26.048Z,14.45
2022-11-14T17:58:12.076Z,14.20
2022-11-14T18:01:00.831Z,14.57
2022-11-14T18:03:46.366Z,14.13
2022-11-14T18:06:33.296Z,12.32
2022-11-14T18:09:18.491Z,14.25
2022-11-14T18:12:03.559Z,12.43
2022-11-14T18:14:48.705Z,11.77
2022-11-14T18:17:33.570Z,12.25
2022-11-14T18:20:18.582Z,12.45
2022-11-14T18:23:03.807Z,11.95
2022-11-14T18:25:48.626Z,12.20
2022-11-14T18:28:33.719Z,12.57
2022-11-14T18:31:18.888Z,13.13
2022-11-14T18:34:03.884Z,12.80
2022-11-14T18:36:49.362Z,13.75
2022-11-14T18:39:34.451Z,13.55
2022-11-14T18:42:19.428Z,13.00
2022-11-14T18:45:04.747Z,12.82
2022-11-14T18:47:49.591Z,12.65
2022-11-14T18:50:34.664Z,12.13
2022-11-14T18:53:19.496Z,12.38
2022-11-14T18:56:06.284Z,13.60
2022-11-14T18:58:56.040Z,13.15
2022-11-14T19:01:41.194Z,13.68
2022-11-14T19:04:26.371Z,12.77
2022-11-14T19:07:11.423Z,11.20
2022-11-14T19:09:56.679Z,12.57
2022-11-14T19:12:42.625Z,11.18
2022-11-14T19:15:27.540Z,11.35
2022-11-14T19:18:12.458Z,11.45
2022-11-14T19:21:02.342Z,10.95
2022-11-14T19:23:47.384Z,10.48
2022-11-14T19:26:33.380Z,10.45
2022-11-14T19:29:18.466Z,11.10
2022-11-14T19:32:04.248Z,11.25
2022-11-14T19:34:49.697Z,10.90
2022-11-14T19:37:34.638Z,11.63
2022-11-14T19:40:19.924Z,11.90
2022-11-14T19:43:07.150Z,11.35
2022-11-14T19:45:51.994Z,11.63
2022-11-14T19:48:37.886Z,12.57
2022-11-14T19:51:23.016Z,12.38
2022-11-14T19:54:09.962Z,12.82
2022-11-14T19:56:55.107Z,12.57
2022-11-14T19:59:40.418Z,12.85
2022-11-14T20:02:25.785Z,12.65
2022-11-14T20:05:10.708Z,13.50
2022-11-14T20:07:57.164Z,13.52
2022-11-14T20:10:48.285Z,13.80
2022-11-14T20:13:36.501Z,13.23
2022-11-14T20:16:25.240Z,14.43
2022-11-14T20:19:10.121Z,14.07
2022-11-14T20:21:55.453Z,14.40
2022-11-14T20:24:40.484Z,13.73
2022-11-14T20:27:25.427Z,13.95
2022-11-14T20:30:10.585Z,16.65
2022-11-14T20:32:55.851Z,16.00
2022-11-14T20:35:40.674Z,15.20
2022-11-14T20:38:25.644Z,16.63
2022-11-14T20:41:12.324Z,16.30
2022-11-14T20:43:57.615Z,16.15
2022-11-14T20:46:42.543Z,15.32
2022-11-14T20:49:27.467Z,14.27
2022-11-14T20:52:12.368Z,13.70
2022-11-14T20:54:57.278Z,12.23
2022-11-14T20:57:42.202Z,13.88
2022-11-14T21:00:27.247Z,12.35
2022-11-14T21:03:12.312Z,11.07
2022-11-14T21:05:57.591Z,10.00
2022-11-14T21:08:43.290Z,10.60
2022-11-14T21:11:28.459Z,9.73
2022-11-14T21:14:13.438Z,11.68
2022-11-14T21:16:58.750Z,10.85
2022-11-14T21:19:43.565Z,10.77
2022-11-14T21:22:28.474Z,10.77
2022-11-14T21:25:13.547Z,10.80
2022-11-14T21:27:58.508Z,11.05
2022-11-14T21:30:43.572Z,9.80
2022-11-14T21:33:30.477Z,10.20
2022-11-14T21:39:23.339Z,10.65
2022-11-14T21:42:08.560Z,11.57
2022-11-14T21:44:53.638Z,10.50
2022-11-14T21:47:38.544Z,10.98
2022-11-14T21:50:23.615Z,10.93
2022-11-14T21:53:15.740Z,11.18
2022-11-14T21:56:16.790Z,10.63
2022-11-14T21:59:13.177Z,11.45
2022-11-14T22:02:17.556Z,11.07
2022-11-14T22:05:02.741Z,10.77
2022-11-14T22:07:47.730Z,11.27
2022-11-14T22:10:32.697Z,10.65
2022-11-14T22:13:18.178Z,10.43
2022-11-14T22:16:08.070Z,10.88
2022-11-14T22:18:54.004Z,11.00
2022-11-14T22:21:39.143Z,10.43
2022-11-14T22:24:24.132Z,10.18
2022-11-14T22:27:09.250Z,10.57
2022-11-14T22:29:54.295Z,9.80
2022-11-14T22:32:39.575Z,10.45
2022-11-14T22:35:24.431Z,10.65
2022-11-14T22:38:09.454Z,9.32
2022-11-14T22:40:56.235Z,10.00
2022-11-14T22:43:41.523Z,9.55
2022-11-14T22:46:27.156Z,9.95
2022-11-14T22:49:14.212Z,10.38
2022-11-14T22:52:02.402Z,9.32
2022-11-14T22:54:47.187Z,9.30
2022-11-14T22:57:32.314Z,9.30
2022-11-14T23:00:17.724Z,9.60
2022-11-14T23:03:02.626Z,9.32
2022-11-14T23:05:48.252Z,9.77
2022-11-14T23:08:34.148Z,8.70
2022-11-14T23:11:22.276Z,9.52
2022-11-14T23:14:07.629Z,9.57
2022-11-14T23:16:52.565Z,8.98
2022-11-14T23:19:37.884Z,8.85
2022-11-14T23:22:22.588Z,8.60
2022-11-14T23:25:08.006Z,9.15
2022-11-14T23:27:53.660Z,9.00
2022-11-14T23:30:38.756Z,9.80
2022-11-14T23:33:23.761Z,8.63
2022-11-14T23:36:08.890Z,9.18
2022-11-14T23:38:54.287Z,8.95
2022-11-14T23:41:39.297Z,7.68
2022-11-14T23:44:24.151Z,9.23
2022-11-14T23:47:09.162Z,9.02
2022-11-14T23:49:54.359Z,8.55
2022-11-14T23:52:39.308Z,8.23
2022-11-14T23:55:24.098Z,8.32
2022-11-14T23:58:09.158Z,8.82
